createdAt,value
2022-08-22T00:01:16.789Z,54.89
2022-08-22T00:03:00.024Z,49.11
2022-08-22T00:03:00.127Z,50.65
2022-08-22T00:03:57.318Z,55.14
2022-08-22T00:06:35.249Z,55.43
2022-08-22T00:09:16.209Z,54.96
2022-08-22T00:11:49.683Z,55.68
2022-08-22T00:14:25.709Z,55.60
2022-08-22T00:17:05.221Z,54.99
2022-08-22T00:19:45.531Z,55.56
2022-08-22T00:22:22.382Z,55.71
2022-08-22T00:24:57.444Z,55.41
2022-08-22T00:27:34.052Z,55.16
2022-08-22T00:30:11.146Z,55.24
2022-08-22T00:32:43.795Z,55.53
2022-08-22T00:35:19.571Z,55.36
2022-08-22T00:38:04.482Z,55.47
2022-08-22T00:40:54.090Z,55.49
2022-08-22T00:43:55.649Z,54.98
2022-08-22T00:46:51.075Z,55.21
2022-08-22T00:49:45.120Z,55.02
2022-08-22T00:52:42.174Z,55.23
2022-08-22T00:55:24.499Z,55.56
2022-08-22T00:58:26.187Z,55.36
2022-08-22T01:01:03.339Z,55.23
2022-08-22T01:03:55.656Z,55.79
2022-08-22T01:06:41.693Z,55.51
2022-08-22T01:09:25.513Z,55.44
2022-08-22T01:12:08.453Z,55.22
2022-08-22T01:14:50.785Z,55.41
2022-08-22T01:17:55.660Z,55.65
2022-08-22T01:21:01.946Z,55.57
2022-08-22T01:24:07.889Z,55.65
2022-08-22T01:27:11.608Z,55.82
2022-08-22T01:29:55.221Z,55.13
2022-08-22T01:33:09.211Z,55.81
2022-08-22T01:36:14.544Z,55.76
2022-08-22T01:39:04.183Z,55.88
2022-08-22T01:42:00.549Z,56.18
2022-08-22T01:45:01.771Z,55.47
2022-08-22T01:47:40.405Z,56.13
2022-08-22T01:50:20.349Z,56.33
2022-08-22T01:53:01.595Z,56.16
2022-08-22T01:55:38.707Z,56.22
2022-08-22T01:58:20.071Z,56.37
2022-08-22T02:01:01.847Z,56.02
2022-08-22T02:03:36.968Z,56.16
2022-08-22T02:06:15.790Z,56.33
2022-08-22T02:09:05.138Z,56.09
2022-08-22T02:11:43.170Z,56.40
2022-08-22T02:14:28.947Z,56.64
2022-08-22T02:17:10.312Z,56.40
2022-08-22T02:19:47.613Z,56.16
2022-08-22T02:22:27.892Z,56.20
2022-08-22T02:25:08.960Z,56.54
2022-08-22T02:27:46.477Z,56.68
2022-08-22T02:30:17.154Z,56.72
2022-08-22T02:32:55.117Z,56.97
2022-08-22T02:35:36.577Z,56.46
2022-08-22T02:38:24.290Z,56.75
2022-08-22T02:41:03.980Z,56.91
2022-08-22T02:43:40.933Z,56.83
2022-08-22T02:46:22.207Z,56.79
2022-08-22T02:48:58.680Z,57.19
2022-08-22T02:51:35.891Z,56.55
2022-08-22T02:54:14.415Z,57.05
2022-08-22T02:56:50.511Z,57.06
2022-08-22T02:59:32.437Z,57.00
2022-08-22T03:02:27.611Z,57.09
2022-08-22T03:04:57.458Z,56.47
2022-08-22T03:07:36.347Z,56.88
2022-08-22T03:10:19.498Z,56.82
2022-08-22T03:12:59.227Z,56.55
2022-08-22T03:15:36.997Z,56.57
2022-08-22T03:18:23.403Z,56.35
2022-08-22T03:20:59.108Z,56.73
2022-08-22T03:23:37.374Z,57.26
2022-08-22T03:26:15.081Z,57.26
2022-08-22T03:28:59.945Z,57.32
2022-08-22T03:31:31.303Z,56.77
2022-08-22T03:34:20.720Z,57.38
2022-08-22T03:37:04.828Z,56.91
2022-08-22T03:39:49.150Z,56.75
2022-08-22T03:42:55.172Z,56.71
2022-08-22T03:45:57.308Z,57.02
2022-08-22T03:48:48.262Z,56.47
2022-08-22T03:51:42.985Z,56.65
2022-08-22T03:54:39.671Z,56.56
2022-08-22T03:57:50.889Z,56.89
2022-08-22T04:01:00.804Z,57.11
2022-08-22T04:04:04.330Z,56.73
2022-08-22T04:07:17.746Z,56.51
2022-08-22T04:10:30.854Z,56.41
2022-08-22T04:13:18.109Z,56.99
2022-08-22T04:16:12.632Z,56.83
2022-08-22T04:19:14.193Z,56.25
2022-08-22T04:22:17.886Z,56.23
2022-08-22T04:24:56.071Z,56.54
2022-08-22T04:27:31.219Z,56.82
2022-08-22T04:30:08.004Z,57.24
2022-08-22T04:32:46.608Z,56.72
2022-08-22T04:35:27.990Z,56.73
2022-08-22T04:38:02.994Z,56.96
2022-08-22T04:40:40.349Z,56.79
2022-08-22T04:43:17.574Z,56.92
2022-08-22T04:45:54.670Z,57.35
2022-08-22T04:48:30.761Z,57.02
2022-08-22T04:51:04.185Z,56.52
2022-08-22T04:53:44.916Z,56.18
2022-08-22T04:56:26.269Z,56.52
2022-08-22T04:59:03.100Z,56.90
2022-08-22T05:01:41.042Z,57.50
2022-08-22T05:04:17.765Z,57.48
2022-08-22T05:06:52.336Z,57.79
2022-08-22T05:09:29.507Z,58.08
2022-08-22T05:12:05.312Z,57.56
2022-08-22T05:14:42.707Z,57.49
2022-08-22T05:17:17.036Z,57.27
2022-08-22T05:19:53.589Z,57.41
2022-08-22T05:22:30.277Z,57.63
2022-08-22T05:25:02.609Z,57.96
2022-08-22T05:27:34.251Z,57.83
2022-08-22T05:30:08.135Z,57.34
2022-08-22T05:32:53.108Z,57.71
2022-08-22T05:35:30.684Z,59.78
2022-08-22T05:38:00.327Z,61.40
2022-08-22T05:40:30.919Z,60.55
2022-08-22T05:42:59.856Z,59.57
2022-08-22T05:45:29.710Z,58.97
2022-08-22T05:48:03.249Z,58.29
2022-08-22T05:50:38.918Z,57.67
2022-08-22T05:53:11.957Z,56.78
2022-08-22T05:55:51.426Z,56.14
2022-08-22T05:58:45.583Z,55.73
2022-08-22T06:01:24.617Z,55.60
2022-08-22T06:04:02.396Z,55.30
2022-08-22T06:06:36.150Z,54.50
2022-08-22T06:09:08.517Z,54.42
2022-08-22T06:11:42.165Z,54.09
2022-08-22T06:14:29.716Z,54.04
2022-08-22T06:17:05.610Z,53.69
2022-08-22T06:19:38.444Z,53.79
2022-08-22T06:22:09.226Z,53.89
2022-08-22T06:24:41.297Z,53.54
2022-08-22T06:27:14.071Z,53.70
2022-08-22T06:29:49.272Z,53.72
2022-08-22T06:32:32.619Z,53.68
2022-08-22T06:35:18.707Z,53.67
2022-08-22T06:37:50.092Z,53.61
2022-08-22T06:40:19.929Z,53.15
2022-08-22T06:42:51.138Z,53.42
2022-08-22T06:45:26.366Z,53.51
2022-08-22T06:48:00.902Z,52.89
2022-08-22T06:50:34.280Z,53.19
2022-08-22T06:53:13.901Z,52.91
2022-08-22T06:55:45.406Z,53.23
2022-08-22T06:58:16.680Z,53.07
2022-08-22T07:00:51.563Z,53.05
2022-08-22T07:03:37.262Z,53.37
2022-08-22T07:06:06.002Z,53.11
2022-08-22T07:08:39.108Z,53.30
2022-08-22T07:11:10.000Z,52.52
2022-08-22T07:13:40.538Z,53.12
2022-08-22T07:16:11.106Z,53.13
2022-08-22T07:18:49.077Z,52.69
2022-08-22T07:21:27.767Z,53.08
2022-08-22T07:24:03.654Z,53.05
2022-08-22T07:26:44.516Z,53.24
2022-08-22T07:29:26.049Z,53.09
2022-08-22T07:32:12.422Z,53.43
2022-08-22T07:35:05.025Z,53.16
2022-08-22T07:37:49.101Z,53.06
2022-08-22T07:40:27.130Z,53.43
2022-08-22T07:43:06.200Z,53.43
2022-08-22T07:45:42.298Z,53.77
2022-08-22T07:48:26.040Z,53.62
2022-08-22T07:51:03.264Z,53.57
2022-08-22T07:53:47.956Z,53.48
2022-08-22T07:56:27.050Z,53.57
2022-08-22T07:59:12.811Z,53.62
2022-08-22T08:01:46.980Z,53.75
2022-08-22T08:04:23.592Z,53.73
2022-08-22T08:06:55.948Z,53.71
2022-08-22T08:09:30.826Z,53.68
2022-08-22T08:12:06.458Z,53.65
2022-08-22T08:14:39.075Z,54.05
2022-08-22T08:17:12.303Z,54.42
2022-08-22T08:19:44.577Z,54.58
2022-08-22T08:22:18.438Z,55.00
2022-08-22T08:24:50.661Z,55.21
2022-08-22T08:27:42.394Z,55.11
2022-08-22T08:30:18.030Z,55.47
2022-08-22T08:32:57.550Z,56.14
2022-08-22T08:36:03.495Z,56.01
2022-08-22T08:38:42.286Z,55.53
2022-08-22T08:41:44.620Z,55.60
2022-08-22T08:44:36.254Z,55.45
2022-08-22T08:47:23.855Z,55.30
2022-08-22T08:50:13.804Z,55.00
2022-08-22T08:53:00.784Z,54.48
2022-08-22T08:55:43.288Z,54.71
2022-08-22T08:58:33.453Z,54.56
2022-08-22T09:01:33.874Z,54.31
2022-08-22T09:04:48.910Z,54.15
2022-08-22T09:07:54.808Z,54.26
2022-08-22T09:11:09.732Z,54.05
2022-08-22T09:13:53.220Z,54.23
2022-08-22T09:16:49.051Z,54.08
2022-08-22T09:20:17.755Z,53.69
2022-08-22T09:23:24.730Z,53.96
2022-08-22T09:26:02.601Z,53.61
2022-08-22T09:28:43.040Z,53.63
2022-08-22T09:34:31.590Z,53.30
2022-08-22T09:37:16.312Z,53.18
2022-08-22T09:39:58.971Z,53.25
2022-08-22T09:42:40.688Z,52.87
2022-08-22T09:45:47.029Z,53.08
2022-08-22T09:48:41.200Z,52.84
2022-08-22T09:51:32.517Z,52.58
2022-08-22T09:54:18.898Z,52.34
2022-08-22T09:57:01.559Z,51.93
2022-08-22T09:59:44.623Z,51.76
2022-08-22T10:02:27.933Z,51.75
2022-08-22T10:05:09.920Z,51.62
2022-08-22T10:08:05.322Z,51.42
2022-08-22T10:11:06.590Z,51.34
2022-08-22T10:13:52.877Z,51.33
2022-08-22T10:16:45.536Z,51.36
2022-08-22T10:19:21.716Z,51.45
2022-08-22T10:22:30.279Z,50.98
2022-08-22T10:25:15.111Z,50.83
2022-08-22T10:28:04.968Z,50.53
2022-08-22T10:30:40.276Z,50.72
2022-08-22T10:33:17.555Z,50.18
2022-08-22T10:35:59.554Z,49.62
2022-08-22T10:38:35.271Z,49.73
2022-08-22T10:41:26.972Z,49.41
2022-08-22T10:44:07.643Z,49.41
2022-08-22T10:46:52.479Z,49.29
2022-08-22T10:49:29.265Z,49.76
2022-08-22T10:52:13.691Z,49.72
2022-08-22T10:54:52.783Z,50.00
2022-08-22T10:57:52.708Z,49.68
2022-08-22T11:00:46.567Z,49.63
2022-08-22T11:03:30.100Z,49.81
2022-08-22T11:06:05.965Z,50.46
2022-08-22T11:09:04.964Z,50.42
2022-08-22T11:11:45.069Z,50.08
2022-08-22T11:15:00.559Z,49.96
2022-08-22T11:18:13.001Z,49.22
2022-08-22T11:20:58.752Z,49.04
2022-08-22T11:23:43.342Z,48.92
2022-08-22T11:26:35.736Z,49.30
2022-08-22T11:29:35.615Z,49.13
2022-08-22T11:32:15.672Z,48.94
2022-08-22T11:34:54.702Z,48.13
2022-08-22T11:37:46.322Z,47.53
2022-08-22T11:40:34.314Z,46.48
2022-08-22T11:43:20.014Z,46.66
2022-08-22T11:45:55.966Z,47.00
2022-08-22T11:48:30.786Z,46.75
2022-08-22T11:51:18.878Z,46.43
2022-08-22T11:54:06.115Z,45.75
2022-08-22T11:56:41.688Z,45.88
2022-08-22T11:59:25.653Z,45.07
2022-08-22T12:02:04.215Z,44.20
2022-08-22T12:04:39.217Z,43.52
2022-08-22T12:07:18.536Z,43.90
2022-08-22T12:09:55.161Z,43.81
2022-08-22T12:12:45.284Z,43.83
2022-08-22T12:15:24.601Z,43.89
2022-08-22T12:18:25.095Z,44.32
2022-08-22T12:21:16.050Z,44.24
2022-08-22T12:24:19.410Z,44.35
2022-08-22T12:27:12.634Z,44.54
2022-08-22T12:29:58.055Z,43.59
2022-08-22T12:33:03.400Z,43.86
2022-08-22T12:35:53.138Z,43.73
2022-08-22T12:38:48.991Z,43.27
2022-08-22T12:42:04.274Z,42.08
2022-08-22T12:44:48.168Z,41.32
2022-08-22T12:47:42.240Z,40.42
2022-08-22T12:50:24.439Z,40.89
2022-08-22T12:53:19.975Z,40.95
2022-08-22T12:56:10.337Z,40.38
2022-08-22T12:59:08.956Z,39.44
2022-08-22T13:01:43.476Z,39.73
2022-08-22T13:04:19.306Z,39.90
2022-08-22T13:07:22.873Z,39.19
2022-08-22T13:09:56.782Z,37.66
2022-08-22T13:12:34.198Z,37.44
2022-08-22T13:15:15.324Z,37.55
2022-08-22T13:17:45.790Z,36.56
2022-08-22T13:20:23.910Z,36.44
2022-08-22T13:22:56.550Z,36.17
2022-08-22T13:25:28.801Z,35.75
2022-08-22T13:28:01.279Z,36.39
2022-08-22T13:30:33.933Z,35.79
2022-08-22T13:33:11.043Z,36.44
2022-08-22T13:35:51.646Z,36.95
2022-08-22T13:38:26.151Z,37.24
2022-08-22T13:40:57.753Z,36.95
2022-08-22T13:43:31.912Z,35.79
2022-08-22T13:46:03.355Z,36.45
2022-08-22T13:48:47.742Z,36.78
2022-08-22T13:51:26.662Z,35.84
2022-08-22T13:54:11.035Z,35.95
2022-08-22T13:56:50.682Z,35.12
2022-08-22T13:59:59.490Z,36.02
2022-08-22T14:02:59.943Z,36.09
2022-08-22T14:05:35.491Z,36.10
2022-08-22T14:08:14.923Z,36.38
2022-08-22T14:10:55.146Z,36.07
2022-08-22T14:13:40.968Z,36.02
2022-08-22T14:16:15.168Z,35.63
2022-08-22T14:18:50.531Z,36.36
2022-08-22T14:21:33.452Z,36.00
2022-08-22T14:24:19.897Z,35.75
2022-08-22T14:26:55.008Z,35.54
2022-08-22T14:29:31.744Z,35.14
2022-08-22T14:32:08.771Z,35.26
2022-08-22T14:34:42.348Z,34.84
2022-08-22T14:37:19.873Z,35.54
2022-08-22T14:39:52.492Z,35.19
2022-08-22T14:42:26.635Z,34.83
2022-08-22T14:45:06.742Z,34.04
2022-08-22T14:47:55.310Z,33.00
2022-08-22T14:50:43.638Z,33.46
2022-08-22T14:53:25.081Z,33.77
2022-08-22T14:55:58.007Z,34.36
2022-08-22T14:58:28.184Z,35.00
2022-08-22T15:00:58.745Z,35.29
2022-08-22T15:03:32.200Z,35.98
2022-08-22T15:06:03.397Z,35.58
2022-08-22T15:08:38.838Z,34.51
2022-08-22T15:11:16.147Z,33.61
2022-08-22T15:13:54.390Z,33.07
2022-08-22T15:16:28.827Z,32.55
2022-08-22T15:18:58.184Z,32.84
2022-08-22T15:21:29.482Z,32.41
2022-08-22T15:24:04.692Z,32.36
2022-08-22T15:26:38.405Z,31.20
2022-08-22T15:29:17.406Z,30.74
2022-08-22T15:31:51.394Z,29.80
2022-08-22T15:34:26.518Z,29.48
2022-08-22T15:37:32.529Z,29.57
2022-08-22T15:40:13.103Z,29.19
2022-08-22T15:42:46.901Z,29.12
2022-08-22T15:45:33.856Z,29.95
2022-08-22T15:48:10.174Z,30.00
2022-08-22T15:50:56.327Z,29.97
2022-08-22T15:53:33.542Z,30.30
2022-08-22T15:56:27.397Z,30.27
2022-08-22T15:59:23.145Z,31.06
2022-08-22T16:01:54.227Z,31.90
2022-08-22T16:04:45.657Z,31.71
2022-08-22T16:07:34.540Z,32.43
2022-08-22T16:10:11.480Z,32.72
2022-08-22T16:12:44.690Z,32.68
2022-08-22T16:15:57.548Z,33.28
2022-08-22T16:19:04.410Z,34.09
2022-08-22T16:22:13.670Z,33.90
2022-08-22T16:25:10.671Z,34.65
2022-08-22T16:27:53.652Z,34.39
2022-08-22T16:30:34.694Z,35.15
2022-08-22T16:33:04.898Z,35.15
2022-08-22T16:36:22.610Z,35.02
2022-08-22T16:38:56.005Z,36.03
2022-08-22T16:41:34.844Z,36.12
2022-08-22T16:44:25.354Z,36.62
2022-08-22T16:46:55.745Z,36.73
2022-08-22T16:49:30.071Z,36.78
2022-08-22T16:52:37.722Z,37.66
2022-08-22T16:55:08.415Z,37.70
2022-08-22T16:58:05.701Z,38.35
2022-08-22T17:00:43.025Z,38.28
2022-08-22T17:03:21.436Z,38.75
2022-08-22T17:06:02.618Z,39.34
2022-08-22T17:08:46.150Z,39.61
2022-08-22T17:11:26.638Z,39.59
2022-08-22T17:14:15.647Z,39.66
2022-08-22T17:17:00.464Z,39.96
2022-08-22T17:19:52.026Z,40.22
2022-08-22T17:22:29.242Z,40.07
2022-08-22T17:25:10.540Z,39.85
2022-08-22T17:27:41.846Z,39.64
2022-08-22T17:30:16.163Z,40.33
2022-08-22T17:33:05.391Z,40.47
2022-08-22T17:35:47.004Z,40.33
2022-08-22T17:38:27.545Z,40.58
2022-08-22T17:41:04.298Z,40.52
2022-08-22T17:43:49.108Z,41.15
2022-08-22T17:46:35.168Z,40.52
2022-08-22T17:49:17.686Z,41.21
2022-08-22T17:51:52.503Z,41.01
2022-08-22T17:54:36.817Z,40.84
2022-08-22T17:57:13.271Z,41.21
2022-08-22T17:59:51.397Z,41.66
2022-08-22T18:02:27.286Z,42.05
2022-08-22T18:05:04.879Z,42.26
2022-08-22T18:07:54.481Z,42.16
2022-08-22T18:10:42.173Z,42.56
2022-08-22T18:13:16.260Z,42.76
2022-08-22T18:15:53.720Z,42.84
2022-08-22T18:18:32.521Z,43.15
2022-08-22T18:21:08.574Z,43.43
2022-08-22T18:23:44.304Z,43.77
2022-08-22T18:26:27.087Z,43.66
2022-08-22T18:29:01.008Z,43.64
2022-08-22T18:31:40.359Z,44.19
2022-08-22T18:34:28.539Z,43.75
2022-08-22T18:37:03.972Z,44.12
2022-08-22T18:39:42.679Z,44.20
2022-08-22T18:42:22.081Z,44.56
2022-08-22T18:44:50.786Z,43.99
2022-08-22T18:47:25.419Z,44.07
2022-08-22T18:49:57.245Z,44.31
2022-08-22T18:52:38.147Z,44.29
2022-08-22T18:55:32.453Z,44.25
2022-08-22T18:58:32.793Z,44.50
2022-08-22T19:01:42.106Z,44.09
2022-08-22T19:04:37.806Z,44.52
2022-08-22T19:07:22.298Z,44.43
2022-08-22T19:10:10.659Z,44.53
2022-08-22T19:13:03.481Z,44.38
2022-08-22T19:15:38.681Z,44.35
2022-08-22T19:18:27.576Z,44.37
2022-08-22T19:21:42.522Z,44.50
2022-08-22T19:24:37.297Z,44.64
2022-08-22T19:27:31.063Z,44.84
2022-08-22T19:30:10.389Z,44.69
2022-08-22T19:33:05.760Z,44.37
2022-08-22T19:35:45.301Z,44.38
2022-08-22T19:39:02.429Z,44.77
2022-08-22T19:41:54.119Z,44.44
2022-08-22T19:44:43.466Z,44.70
2022-08-22T19:47:35.536Z,45.13
2022-08-22T19:50:17.827Z,44.58
2022-08-22T19:53:04.409Z,44.44
2022-08-22T19:55:58.478Z,45.25
2022-08-22T19:58:42.112Z,45.36
2022-08-22T20:01:40.659Z,46.34
2022-08-22T20:04:37.656Z,46.33
2022-08-22T20:07:18.907Z,46.78
2022-08-22T20:09:58.942Z,46.63
2022-08-22T20:12:42.676Z,47.32
2022-08-22T20:15:22.188Z,47.24
2022-08-22T20:20:59.060Z,47.63
2022-08-22T20:23:32.496Z,47.47
2022-08-22T20:26:01.879Z,47.77
2022-08-22T20:28:37.924Z,47.74
2022-08-22T20:31:12.441Z,47.83
2022-08-22T20:33:46.074Z,47.87
2022-08-22T20:36:28.702Z,48.01
2022-08-22T20:39:03.090Z,47.78
2022-08-22T20:41:36.750Z,47.55
2022-08-22T20:44:12.793Z,47.71
2022-08-22T20:46:55.780Z,48.11
2022-08-22T20:49:29.520Z,48.00
2022-08-22T20:52:02.369Z,48.11
2022-08-22T20:54:36.282Z,48.25
2022-08-22T20:57:16.393Z,48.27
2022-08-22T20:59:52.615Z,48.17
2022-08-22T21:02:28.575Z,48.09
2022-08-22T21:05:01.921Z,47.91
2022-08-22T21:07:35.523Z,48.04
2022-08-22T21:10:26.806Z,47.99
2022-08-22T21:13:08.672Z,47.73
2022-08-22T21:15:42.968Z,47.81
2022-08-22T21:18:18.098Z,47.67
2022-08-22T21:20:51.459Z,48.02
2022-08-22T21:23:22.909Z,47.86
2022-08-22T21:25:59.546Z,47.79
2022-08-22T21:28:37.845Z,47.85
2022-08-22T21:31:14.363Z,47.80
2022-08-22T21:33:48.366Z,47.36
2022-08-22T21:36:23.535Z,47.50
2022-08-22T21:38:56.533Z,47.59
2022-08-22T21:41:32.947Z,47.57
2022-08-22T21:44:21.540Z,47.77
2022-08-22T21:46:49.987Z,47.92
2022-08-22T21:49:25.999Z,48.05
2022-08-22T21:51:55.821Z,47.98
2022-08-22T21:54:40.993Z,47.98
2022-08-22T21:57:36.429Z,47.85
2022-08-22T22:00:12.930Z,47.99
2022-08-22T22:02:44.049Z,48.09
2022-08-22T22:05:17.036Z,48.29
2022-08-22T22:07:48.306Z,48.21
2022-08-22T22:10:21.043Z,48.25
2022-08-22T22:12:53.234Z,47.84
2022-08-22T22:15:26.923Z,48.27
2022-08-22T22:17:58.327Z,48.11
2022-08-22T22:20:30.775Z,48.01
2022-08-22T22:23:00.315Z,48.40
2022-08-22T22:25:40.998Z,48.29
2022-08-22T22:28:15.970Z,48.43
2022-08-22T22:30:46.052Z,48.03
2022-08-22T22:33:15.033Z,48.23
2022-08-22T22:35:45.828Z,48.16
2022-08-22T22:38:18.420Z,48.19
2022-08-22T22:40:48.904Z,48.22
2022-08-22T22:43:17.185Z,48.03
2022-08-22T22:45:45.474Z,48.14
2022-08-22T22:48:18.141Z,48.18
2022-08-22T22:50:55.394Z,48.39
2022-08-22T22:53:38.297Z,48.30
2022-08-22T22:56:10.666Z,48.51
2022-08-22T22:58:42.459Z,48.34
2022-08-22T23:01:15.488Z,48.25
2022-08-22T23:03:45.861Z,47.88
2022-08-22T23:06:18.810Z,48.24
2022-08-22T23:08:50.167Z,48.47
2022-08-22T23:11:23.330Z,48.38
2022-08-22T23:13:53.375Z,47.97
2022-08-22T23:16:26.719Z,48.25
2022-08-22T23:18:58.065Z,48.42
2022-08-22T23:21:32.265Z,48.23
2022-08-22T23:24:03.496Z,48.58
2022-08-22T23:26:33.928Z,48.92
2022-08-22T23:29:06.535Z,48.44
2022-08-22T23:31:37.532Z,48.54
2022-08-22T23:34:09.832Z,48.87
2022-08-22T23:36:42.685Z,48.58
2022-08-22T23:39:13.645Z,48.78
2022-08-22T23:41:43.249Z,48.55
2022-08-22T23:44:13.560Z,49.11
2022-08-22T23:46:43.873Z,49.13
2022-08-22T23:49:13.787Z,49.09
2022-08-22T23:51:46.599Z,49.34
2022-08-22T23:54:17.733Z,49.00
2022-08-22T23:56:51.536Z,48.92
2022-08-22T23:59:22.862Z,49.29
